Lake Country Regional Airport
KW63 : now visible

Airfield :











YOU CAN JOIN US ON...

 
LOGIN :

Register | Disclaimer

   EN    FR    IT 

 









Legend :    VFR   Marginal VFR   IFR   Intensive IFR   Very Intensive IFR
Visi :
Ceiling :
>= 8 km
>= 3000ft
5 to 8 km
1000 to 3000 ft
1500m to 5 km
500 to 1000 ft
800 to 1500m
200 to 500 ft
< 800m
< 200 ft
Symbols :   Thunderstorms  Fog  Heavy snow  Heavy precipitations  Wind > 20 kt






- Airport Elevation : 421 ft


KW63 - Lake Country Regional

CURRENT METAR :
  • 220155Z AUTO 13003KT 10SM OVC006 15/15 A3007 RMK AO1

EXPIRED METARs :
  • 220135Z AUTO 00000KT 10SM OVC006 15/15 A3007 RMK AO1
  • 220115Z AUTO 00000KT 10SM OVC008 15/15 A3007 RMK AO1
  • 220055Z AUTO 11003KT 10SM OVC008 15/15 A3007 RMK AO1
  • 220035Z AUTO 11003KT 10SM BKN008 OVC090 15/15 A3007 RMK AO1
  • 220015Z AUTO 12005KT 10SM BKN090 15/15 A3007 RMK AO1
  • 212355Z AUTO 11006KT 10SM SCT090 15/15 A3006 RMK AO1
  • 212335Z AUTO 10005KT 10SM CLR 15/14 A3006 RMK AO1
  • 212315Z AUTO 09005KT 10SM CLR 16/13 A3006 RMK AO1

TAF N/A



MET'MAP, your aeronautical weather chart ! - Copyright ORBIFLY December 2007 - Disclaimer

ORBIFLY MET'MAP TEAM :

Programming & Development : Alexandra Zaïnal
Concept & Development : Baudouin d'Aumeries
Co-Development & Prog : Marc-Olivier Méhu
Technical & hardware support : Manuel Goepfert

Contact : metmap@orbifly.com




SOURCES & CREDITS :

   NOAA       Earth
Advisory